ZRH weather

Z├╝rich Airport
Zurich, Canton of Zurich, Switzerland

Public forecast

Using degrees Celsius for public forecast. Weather courtesy of forecast.io.

METAR (pilot weather report)

Retrieved 2018/10/19 09:20 UTC (19 minutes ago):

LSZH 190920Z 06005KT 020V120 4000 BR BKN011 12/09 Q1022 BECMG 5000

TAF (pilot weather forecast)

Retrieved 2018/10/19 09:40 UTC (0 seconds ago):

TAF LSZH 190825Z 1909/2015 VRB03KT 4000 BR BKN011 TX19/1914Z TN05/2004Z TX18/2014Z BECMG 1909/1911 7000 FEW013 BECMG 1911/1913 05006KT CAVOK BECMG 1918/1921 VRB03KT 7000 NSC BECMG 1923/2002 4000 MIFG BECMG 2002/2004 2000 BCFG BKN003 BECMG 2007/2009 05006KT 4000 BKN010 BECMG 2009/2011 05007KT 7000 FEW015 BECMG 2011/2013 CAVOK